createdAt,value
2018-12-29T06:18:59.193Z,73.90
2018-12-29T06:21:52.086Z,73.90
2018-12-29T06:24:44.710Z,74.20
2018-12-29T06:27:37.376Z,74.00
2018-12-29T06:30:30.039Z,73.90
2018-12-29T06:33:25.577Z,73.80
2018-12-29T06:36:18.869Z,73.70
2018-12-29T06:39:12.701Z,73.70
2018-12-29T06:42:04.764Z,74.40
2018-12-29T06:45:02.741Z,72.90
2018-12-29T06:47:55.281Z,70.30
2018-12-29T06:50:47.714Z,71.70
2018-12-29T06:53:40.152Z,71.90
2018-12-29T06:56:32.998Z,72.00
2018-12-29T06:59:24.895Z,72.20
2018-12-29T07:02:18.210Z,71.90
2018-12-29T07:05:10.480Z,72.40
2018-12-29T07:08:03.171Z,72.10
2018-12-29T07:10:55.725Z,72.10
2018-12-29T07:13:49.241Z,72.20
2018-12-29T07:16:42.378Z,72.10
2018-12-29T07:19:34.861Z,71.90
2018-12-29T07:22:27.580Z,72.40
2018-12-29T07:25:20.120Z,72.60
2018-12-29T07:28:12.977Z,72.50
2018-12-29T07:31:05.787Z,72.60
2018-12-29T07:33:58.292Z,72.60
2018-12-29T07:36:51.386Z,71.90
2018-12-29T07:39:45.054Z,72.30
2018-12-29T07:42:38.198Z,72.40
2018-12-29T07:45:30.846Z,72.60
2018-12-29T07:48:23.723Z,72.50
2018-12-29T07:51:16.286Z,72.80
2018-12-29T07:54:08.820Z,72.20
2018-12-29T07:57:23.463Z,72.20
2018-12-29T08:00:15.724Z,72.40
2018-12-29T08:03:07.803Z,72.20
2018-12-29T08:06:00.627Z,72.10
2018-12-29T08:08:52.865Z,71.90
2018-12-29T08:11:45.689Z,72.20
2018-12-29T08:14:38.755Z,72.00
2018-12-29T08:17:31.409Z,71.50
2018-12-29T08:20:24.101Z,71.50
2018-12-29T08:23:16.607Z,71.10
2018-12-29T08:26:09.072Z,71.20
2018-12-29T08:29:02.333Z,71.60
2018-12-29T08:31:55.071Z,71.90
2018-12-29T08:34:47.911Z,71.60
2018-12-29T08:37:40.678Z,71.10
2018-12-29T08:40:32.993Z,71.10
2018-12-29T08:43:26.497Z,71.00
2018-12-29T08:46:18.581Z,70.70
2018-12-29T08:49:10.999Z,71.00
2018-12-29T08:52:03.389Z,70.90
2018-12-29T08:54:55.926Z,70.80
2018-12-29T08:57:48.660Z,70.90
2018-12-29T09:00:41.010Z,70.60
2018-12-29T09:03:33.508Z,70.50
2018-12-29T09:06:26.106Z,69.80
2018-12-29T09:09:18.966Z,70.30
2018-12-29T09:12:11.485Z,70.10
2018-12-29T09:15:04.056Z,70.10
2018-12-29T09:17:56.824Z,69.90
2018-12-29T09:20:49.611Z,69.80
2018-12-29T09:23:42.355Z,69.40
2018-12-29T09:26:34.854Z,69.30
2018-12-29T09:29:27.945Z,69.50
2018-12-29T09:32:20.500Z,69.40
2018-12-29T09:35:13.178Z,69.50
2018-12-29T09:38:08.445Z,69.20
2018-12-29T09:41:00.519Z,69.50
2018-12-29T09:43:53.709Z,68.50
2018-12-29T09:46:46.459Z,68.80
2018-12-29T09:49:38.677Z,68.70
2018-12-29T09:52:32.311Z,68.30
2018-12-29T09:55:25.546Z,68.10
2018-12-29T09:58:18.697Z,68.00
2018-12-29T10:01:11.670Z,69.70
2018-12-29T10:04:16.647Z,68.30
2018-12-29T10:07:09.037Z,67.90
2018-12-29T10:10:01.595Z,68.10
2018-12-29T10:12:54.247Z,68.00
2018-12-29T10:15:46.343Z,67.80
2018-12-29T10:18:39.536Z,68.20
2018-12-29T10:21:32.031Z,68.00
2018-12-29T10:24:24.449Z,67.70
2018-12-29T10:27:17.842Z,67.80
2018-12-29T10:30:10.792Z,67.80
2018-12-29T10:33:03.778Z,68.20
2018-12-29T10:35:55.857Z,68.00
2018-12-29T10:38:48.170Z,68.30
2018-12-29T10:41:40.896Z,67.90
2018-12-29T10:44:33.727Z,68.20
2018-12-29T10:47:26.665Z,67.80
2018-12-29T10:50:19.040Z,68.20
2018-12-29T10:53:11.335Z,67.70
2018-12-29T10:56:03.768Z,67.20
2018-12-29T10:58:56.393Z,68.30
2018-12-29T11:01:49.482Z,67.70
2018-12-29T11:04:42.438Z,67.70
2018-12-29T11:07:35.175Z,68.00
2018-12-29T11:10:27.509Z,67.70
2018-12-29T11:13:20.171Z,67.90
2018-12-29T11:16:13.304Z,67.70
2018-12-29T11:19:06.848Z,67.50
2018-12-29T11:21:59.212Z,67.70
2018-12-29T11:24:51.413Z,67.90
2018-12-29T11:27:43.698Z,68.10
2018-12-29T11:30:35.815Z,67.90
2018-12-29T11:33:28.274Z,67.70
2018-12-29T11:36:20.836Z,68.20
2018-12-29T11:39:12.854Z,67.90
2018-12-29T11:42:05.253Z,68.00
2018-12-29T11:44:57.844Z,68.30
2018-12-29T11:47:50.452Z,68.40
2018-12-29T11:50:43.928Z,68.50
2018-12-29T11:53:36.220Z,68.80
2018-12-29T11:56:28.261Z,68.90
2018-12-29T11:59:21.279Z,69.30
2018-12-29T13:06:11.603Z,64.40
2018-12-29T13:09:04.318Z,63.90
2018-12-29T13:11:57.725Z,66.10
2018-12-29T13:14:52.160Z,62.00
2018-12-29T13:17:44.589Z,60.20
2018-12-29T13:20:38.522Z,59.80
2018-12-29T13:23:40.383Z,59.90
2018-12-29T13:26:36.780Z,59.60
2018-12-29T13:29:30.812Z,59.80
2018-12-29T13:32:25.502Z,59.30
2018-12-29T13:35:31.465Z,59.60
2018-12-29T13:38:26.211Z,60.00
2018-12-29T13:41:31.707Z,61.40
2018-12-29T13:44:31.626Z,60.70
2018-12-29T13:47:35.021Z,62.80
2018-12-29T13:50:40.977Z,63.40
2018-12-29T13:53:36.082Z,63.70
2018-12-29T13:56:28.667Z,61.70
2018-12-29T13:59:29.460Z,62.00
2018-12-29T14:02:24.742Z,62.10
2018-12-29T14:05:17.880Z,62.70
2018-12-29T14:08:18.111Z,63.70
2018-12-29T14:11:24.124Z,63.90
2018-12-29T14:14:18.956Z,63.80
2018-12-29T14:17:32.780Z,63.30
2018-12-29T14:20:25.383Z,64.40
2018-12-29T14:23:35.850Z,63.50
2018-12-29T14:26:31.568Z,63.60
2018-12-29T14:29:31.509Z,64.30
2018-12-29T14:32:26.099Z,64.30
2018-12-29T14:35:19.321Z,64.90
2018-12-29T14:38:11.945Z,65.40
2018-12-29T14:41:06.173Z,65.70
2018-12-29T14:43:58.585Z,65.50
2018-12-29T14:46:57.140Z,65.40
2018-12-29T14:49:49.520Z,65.20
2018-12-29T14:52:43.624Z,65.10
2018-12-29T14:55:36.110Z,65.00
2018-12-29T14:58:41.136Z,65.00
2018-12-29T15:01:34.466Z,65.00
2018-12-29T15:04:34.311Z,65.00
2018-12-29T15:07:26.808Z,64.80
2018-12-29T15:10:21.234Z,65.10
2018-12-29T15:13:14.744Z,65.30
2018-12-29T15:16:08.838Z,65.50
2018-12-29T15:19:17.113Z,65.60
2018-12-29T15:22:11.354Z,65.90
2018-12-29T15:25:06.110Z,65.90
2018-12-29T15:28:00.012Z,66.30
2018-12-29T15:31:05.634Z,66.40
2018-12-29T15:34:05.789Z,66.60
2018-12-29T15:36:58.098Z,66.70
2018-12-29T15:39:52.891Z,67.00
2018-12-29T15:42:45.706Z,67.20
2018-12-29T15:45:56.843Z,67.40
2018-12-29T15:48:51.205Z,67.40
2018-12-29T15:51:44.242Z,67.20
2018-12-29T15:54:36.364Z,67.30
2018-12-29T15:57:28.902Z,67.30
2018-12-29T16:00:21.905Z,67.50
2018-12-29T16:03:20.778Z,67.20
2018-12-29T16:06:14.624Z,67.30
2018-12-29T16:09:11.002Z,67.20
2018-12-29T16:12:04.081Z,67.20
2018-12-29T16:14:58.726Z,67.20
2018-12-29T16:17:52.900Z,67.10
2018-12-29T16:20:53.513Z,66.90
2018-12-29T16:23:48.231Z,66.60
2018-12-29T16:26:53.379Z,66.30
2018-12-29T16:29:49.245Z,66.30
2018-12-29T16:32:44.254Z,66.10
2018-12-29T16:35:36.725Z,66.30
2018-12-29T16:38:29.618Z,65.70
2018-12-29T16:41:24.904Z,65.40
2018-12-29T16:44:18.857Z,65.20
2018-12-29T16:47:18.057Z,64.90
2018-12-29T16:50:10.294Z,64.60
2018-12-29T16:53:02.666Z,64.40
2018-12-29T16:55:56.422Z,64.60
2018-12-29T16:59:07.129Z,64.60
2018-12-29T17:02:17.130Z,64.70
2018-12-29T17:05:11.438Z,64.70
2018-12-29T17:08:12.627Z,64.70
2018-12-29T17:11:07.389Z,64.60
2018-12-29T17:14:11.024Z,64.80
2018-12-29T17:17:04.521Z,64.90
2018-12-29T17:20:05.828Z,64.90
2018-12-29T17:23:09.612Z,65.50
2018-12-29T17:26:10.734Z,65.10
2018-12-29T17:29:09.005Z,65.00
2018-12-29T17:32:23.143Z,65.60
2018-12-29T17:35:36.890Z,65.20
2018-12-29T17:38:25.354Z,65.20
2018-12-29T17:41:25.600Z,65.10
2018-12-29T17:44:34.118Z,65.10
2018-12-29T17:47:27.852Z,65.30
2018-12-29T17:50:21.633Z,65.20
2018-12-29T17:53:14.260Z,65.30
2018-12-29T17:56:08.583Z,65.30
2018-12-29T17:59:01.441Z,65.30
2018-12-29T18:01:54.586Z,65.30
2018-12-29T18:05:05.744Z,65.30
2018-12-29T18:08:00.077Z,65.20
2018-12-29T18:10:55.550Z,65.10
2018-12-29T18:13:48.541Z,65.20
2018-12-29T18:16:42.739Z,65.30
2018-12-29T18:19:42.907Z,65.10
2018-12-29T18:22:36.247Z,65.20
2018-12-29T18:25:29.900Z,65.30
2018-12-29T18:28:25.915Z,65.20
2018-12-29T18:31:24.652Z,65.40
2018-12-29T18:34:17.259Z,65.30
2018-12-29T18:37:11.193Z,65.20
2018-12-29T18:40:10.682Z,65.20
2018-12-29T18:43:03.377Z,65.10
2018-12-29T18:46:00.194Z,65.20
2018-12-29T18:48:53.773Z,65.00
2018-12-29T18:51:47.762Z,64.90
2018-12-29T18:54:40.781Z,64.90
2018-12-29T18:57:33.091Z,65.00
2018-12-29T19:00:28.951Z,64.80
2018-12-29T19:03:23.222Z,64.80
2018-12-29T19:06:17.050Z,64.90
2018-12-29T19:09:13.176Z,64.80
2018-12-29T19:12:11.095Z,64.70
2018-12-29T19:15:00.276Z,64.80
2018-12-29T19:17:54.152Z,64.70
2018-12-29T19:21:05.702Z,64.50
2018-12-29T19:24:00.020Z,64.30
2018-12-29T19:26:54.057Z,64.40
2018-12-29T19:29:53.210Z,64.40
2018-12-29T19:32:47.681Z,64.10
2018-12-29T19:35:40.462Z,64.20
2018-12-29T19:38:33.097Z,64.20
2018-12-29T19:41:25.905Z,64.10
2018-12-29T19:44:19.293Z,64.10
2018-12-29T19:47:14.506Z,64.20
2018-12-29T19:50:08.913Z,64.30
2018-12-29T19:53:03.643Z,64.10
2018-12-29T19:55:55.691Z,64.10
2018-12-29T19:58:48.560Z,64.10
2018-12-29T20:01:42.653Z,64.00
2018-12-29T20:04:35.694Z,63.90
2018-12-29T20:07:29.970Z,63.90
2018-12-29T20:10:22.745Z,63.70
2018-12-29T20:13:15.216Z,63.80
2018-12-29T20:16:14.368Z,63.60
2018-12-29T20:19:06.843Z,64.30
2018-12-29T20:21:59.486Z,63.60
2018-12-29T20:25:12.653Z,63.60
2018-12-29T20:28:05.628Z,63.50
2018-12-29T20:31:02.452Z,63.70
2018-12-29T20:33:56.706Z,63.40
2018-12-29T20:36:51.076Z,63.80
2018-12-29T20:39:49.611Z,63.60
2018-12-29T20:42:44.289Z,63.70
2018-12-29T20:45:40.362Z,63.70
2018-12-29T20:48:34.881Z,63.70
2018-12-29T20:51:29.510Z,63.60
2018-12-29T20:54:23.743Z,63.60
2018-12-29T20:57:16.754Z,63.50
2018-12-29T21:00:09.864Z,63.70
2018-12-29T21:03:08.698Z,63.60
2018-12-29T21:06:03.581Z,63.70
2018-12-29T21:08:57.655Z,63.80
2018-12-29T21:11:52.367Z,63.90
2018-12-29T21:14:45.709Z,63.70
2018-12-29T21:17:39.148Z,63.70
2018-12-29T21:20:31.943Z,63.80
2018-12-29T21:23:25.999Z,63.90
2018-12-29T21:26:20.051Z,63.80
2018-12-29T21:29:14.425Z,63.60
2018-12-29T21:32:08.523Z,63.70
2018-12-29T21:35:01.020Z,63.40
2018-12-29T21:37:54.424Z,63.30
2018-12-29T21:40:52.650Z,63.30
2018-12-29T21:43:46.291Z,63.40
2018-12-29T21:46:38.847Z,63.50
2018-12-29T21:49:53.639Z,63.40
2018-12-29T21:52:45.914Z,63.30
2018-12-29T21:55:45.959Z,62.90
2018-12-29T21:58:41.682Z,63.10
2018-12-29T22:01:37.371Z,63.10
2018-12-29T22:04:30.321Z,62.80
2018-12-29T22:07:23.610Z,62.80
2018-12-29T22:10:16.873Z,62.70
2018-12-29T22:13:12.907Z,62.70
2018-12-29T22:16:06.486Z,62.70
2018-12-29T22:18:58.854Z,62.80
2018-12-29T22:21:55.279Z,63.20
2018-12-29T22:24:48.612Z,63.10
2018-12-29T22:27:40.805Z,62.90
2018-12-29T22:30:34.791Z,63.10
2018-12-29T22:33:27.247Z,63.20
2018-12-29T22:36:21.161Z,63.10
2018-12-29T22:39:14.204Z,63.10
2018-12-29T22:42:08.789Z,62.90
2018-12-29T22:45:02.343Z,62.90
2018-12-29T22:47:55.348Z,63.50
2018-12-29T22:50:51.170Z,62.80
2018-12-29T22:53:45.137Z,62.60
2018-12-29T22:56:45.220Z,62.70
2018-12-29T22:59:37.370Z,62.80
2018-12-29T23:02:30.225Z,62.70
2018-12-29T23:05:22.428Z,63.50
2018-12-29T23:08:14.550Z,62.70
2018-12-29T23:11:26.914Z,62.70
2018-12-29T23:14:20.808Z,63.00
2018-12-29T23:17:13.676Z,63.00
2018-12-29T23:20:09.031Z,63.00
2018-12-29T23:23:06.679Z,63.00
2018-12-29T23:25:59.300Z,63.10
2018-12-29T23:28:51.458Z,63.00
2018-12-29T23:31:46.168Z,63.10
2018-12-29T23:34:38.576Z,63.00
2018-12-29T23:37:30.120Z,63.00
2018-12-29T23:40:21.988Z,63.00
2018-12-29T23:43:13.458Z,63.00
2018-12-29T23:46:05.533Z,62.90
2018-12-29T23:48:59.400Z,62.90
2018-12-29T23:51:52.610Z,62.80
2018-12-29T23:54:47.047Z,62.90
2018-12-29T23:57:40.282Z,62.90
